Time;durP1;ratioP1;P1;durP2;ratioP2;P2;SDS_P1;SDS_P2;PMS_P1;PMS_P2;Temp;Humidity;BMP_temperature;BMP_pressure;BME280_temperature;BME280_humidity;BME280_pressure;Samples;Min_cycle;Max_cycle;Signal;HPM_P1;HPM_P2
2021/12/08 00:02:22;;;;;;;5.37;3.70;;;;;;;;;;5075522;28;20442;-58
2021/12/08 00:04:48;;;;;;;4.87;3.40;;;;;;;;;;5075238;28;21003;-57
2021/12/08 00:07:14;;;;;;;7.53;3.93;;;;;;;;;;5075322;28;20465;-57
2021/12/08 00:14:56;;;;;;;6.87;3.83;;;;;;;;;;5075217;28;20834;-56
2021/12/08 00:17:22;;;;;;;4.47;3.33;;;;;;;;;;5075370;28;20433;-57
2021/12/08 00:19:48;;;;;;;5.73;3.57;;;;;;;;;;5075124;28;20782;-56
2021/12/08 00:22:14;;;;;;;4.17;3.20;;;;;;;;;;5075310;28;20245;-57
2021/12/08 00:24:41;;;;;;;5.03;3.30;;;;;;;;;;5075107;28;20241;-56
2021/12/08 00:27:07;;;;;;;4.37;3.50;;;;;;;;;;5075403;28;20438;-56
2021/12/08 00:29:33;;;;;;;6.33;3.27;;;;;;;;;;5074973;28;20477;-55
2021/12/08 00:32:01;;;;;;;5.87;3.33;;;;;;;;;;5075119;28;20433;-55
2021/12/08 00:34:27;;;;;;;6.50;3.50;;;;;;;;;;5074993;28;20429;-56
2021/12/08 00:36:57;;;;;;;6.17;3.33;;;;;;;;;;5074900;28;20928;-56
2021/12/08 00:39:23;;;;;;;6.77;3.57;;;;;;;;;;5075015;28;20437;-56
2021/12/08 00:41:49;;;;;;;5.87;3.20;;;;;;;;;;5074828;28;20518;-56
2021/12/08 00:44:15;;;;;;;5.20;3.10;;;;;;;;;;5074716;28;20514;-57
2021/12/08 00:46:41;;;;;;;5.17;3.20;;;;;;;;;;5074589;28;20544;-56
2021/12/08 00:49:11;;;;;;;4.57;3.17;;;;;;;;;;5074753;28;20572;-56
2021/12/08 00:51:37;;;;;;;4.73;3.30;;;;;;;;;;5074499;28;21005;-57
2021/12/08 00:54:03;;;;;;;5.57;3.07;;;;;;;;;;5074390;28;20442;-57
2021/12/08 00:56:29;;;;;;;6.17;3.40;;;;;;;;;;5074425;28;20261;-57
2021/12/08 00:58:56;;;;;;;5.33;2.93;;;;;;;;;;5074360;28;20512;-56
2021/12/08 01:01:22;;;;;;;5.97;2.90;;;;;;;;;;5074250;28;20469;-56
2021/12/08 01:03:49;;;;;;;4.73;2.70;;;;;;;;;;5074407;28;20434;-56
2021/12/08 01:06:17;;;;;;;5.07;3.10;;;;;;;;;;5074325;28;21003;-57
2021/12/08 01:08:44;;;;;;;4.77;3.00;;;;;;;;;;5074320;28;21004;-57
2021/12/08 01:11:11;;;;;;;3.77;2.60;;;;;;;;;;5074143;28;20485;-56
2021/12/08 01:13:37;;;;;;;5.50;2.67;;;;;;;;;;5072507;28;20434;-57
2021/12/08 01:16:06;;;;;;;4.10;2.67;;;;;;;;;;5074267;28;20901;-58
2021/12/08 01:18:33;;;;;;;3.27;2.50;;;;;;;;;;5074172;28;20433;-57
2021/12/08 01:21:00;;;;;;;7.40;2.93;;;;;;;;;;5074359;28;20465;-56
2021/12/08 01:23:28;;;;;;;5.27;2.70;;;;;;;;;;5074136;28;20438;-55
2021/12/08 01:25:54;;;;;;;3.80;2.47;;;;;;;;;;5073957;28;20460;-58
2021/12/08 01:28:22;;;;;;;5.40;3.10;;;;;;;;;;5074178;28;20662;-58
2021/12/08 01:30:49;;;;;;;4.73;2.60;;;;;;;;;;5073807;28;20509;-59
2021/12/08 01:33:15;;;;;;;4.57;2.63;;;;;;;;;;5073829;28;20426;-58
2021/12/08 01:35:41;;;;;;;4.03;2.67;;;;;;;;;;5073659;28;20434;-58
2021/12/08 01:38:07;;;;;;;5.77;2.93;;;;;;;;;;5073715;28;20434;-58
2021/12/08 01:40:34;;;;;;;3.30;2.70;;;;;;;;;;5073725;28;20495;-60
2021/12/08 01:43:02;;;;;;;5.10;2.63;;;;;;;;;;5074037;28;20529;-59
2021/12/08 01:48:15;;;;;;;7.80;3.00;;;;;;;;;;5073933;28;20496;-58
2021/12/08 01:50:42;;;;;;;3.60;2.97;;;;;;;;;;5073421;28;20535;-59
2021/12/08 01:53:09;;;;;;;4.00;2.37;;;;;;;;;;5073473;28;20944;-59
2021/12/08 01:55:37;;;;;;;3.73;2.53;;;;;;;;;;5073481;28;20438;-59
2021/12/08 01:58:03;;;;;;;4.67;3.00;;;;;;;;;;5073490;28;20442;-59
2021/12/08 02:00:31;;;;;;;6.43;3.07;;;;;;;;;;5073376;28;20501;-60
2021/12/08 02:02:57;;;;;;;4.47;2.70;;;;;;;;;;5073398;28;20433;-59
2021/12/08 02:05:23;;;;;;;3.43;2.67;;;;;;;;;;5073218;28;20956;-57
2021/12/08 02:07:50;;;;;;;4.63;2.67;;;;;;;;;;5073096;28;21027;-58
2021/12/08 02:10:16;;;;;;;5.10;2.67;;;;;;;;;;5073331;28;20505;-59
2021/12/08 02:12:44;;;;;;;5.40;2.40;;;;;;;;;;5073121;28;20434;-58
2021/12/08 02:15:12;;;;;;;2.97;2.50;;;;;;;;;;5073343;28;20445;-58
2021/12/08 02:17:38;;;;;;;5.60;2.40;;;;;;;;;;5072999;28;21057;-58
2021/12/08 02:20:04;;;;;;;3.63;2.67;;;;;;;;;;5073118;28;20974;-58
2021/12/08 02:22:32;;;;;;;4.90;3.13;;;;;;;;;;5072502;28;20434;-61
2021/12/08 02:24:58;;;;;;;4.97;2.90;;;;;;;;;;5073107;28;20464;-59
2021/12/08 02:27:24;;;;;;;4.93;2.70;;;;;;;;;;5072972;28;21010;-59
2021/12/08 02:30:01;;;;;;;7.30;3.43;;;;;;;;;;5072825;28;20576;-58
2021/12/08 02:46:42;;;;;;;4.73;2.87;;;;;;;;;;5073037;28;20244;-59
2021/12/08 02:49:03;;;;;;;5.40;3.27;;;;;;;;;;5072425;28;20505;-57
2021/12/08 02:51:30;;;;;;;4.50;3.23;;;;;;;;;;5072393;28;20800;-57
2021/12/08 02:53:58;;;;;;;5.27;3.27;;;;;;;;;;5072033;28;20904;-56
2021/12/08 02:56:24;;;;;;;4.70;2.93;;;;;;;;;;5072308;28;20434;-57
2021/12/08 02:58:50;;;;;;;6.63;3.43;;;;;;;;;;5071961;28;20457;-58
2021/12/08 03:01:17;;;;;;;6.70;3.43;;;;;;;;;;5072003;28;20903;-58
2021/12/08 03:03:43;;;;;;;6.43;3.67;;;;;;;;;;5072110;28;20438;-58
2021/12/08 03:06:11;;;;;;;5.03;3.53;;;;;;;;;;5071916;28;20955;-57
2021/12/08 03:08:37;;;;;;;4.90;3.30;;;;;;;;;;5071917;28;20442;-58
2021/12/08 03:11:04;;;;;;;6.90;3.83;;;;;;;;;;5072000;28;20489;-58
2021/12/08 03:13:31;;;;;;;4.00;3.60;;;;;;;;;;5071938;28;20196;-58
2021/12/08 03:15:57;;;;;;;4.47;3.67;;;;;;;;;;5072026;28;20958;-57
2021/12/08 03:18:31;;;;;;;8.03;3.83;;;;;;;;;;5072014;28;20434;-57
2021/12/08 03:20:57;;;;;;;5.87;3.90;;;;;;;;;;5072104;28;20495;-56
2021/12/08 03:23:30;;;;;;;6.80;4.20;;;;;;;;;;5071868;28;20508;-57
2021/12/08 03:25:58;;;;;;;5.53;3.80;;;;;;;;;;5071979;28;20434;-58
2021/12/08 03:28:30;;;;;;;5.03;3.70;;;;;;;;;;5072179;28;20469;-58
2021/12/08 03:33:29;;;;;;;4.90;3.63;;;;;;;;;;5072006;28;20433;-60
2021/12/08 03:35:55;;;;;;;5.37;3.57;;;;;;;;;;5071393;28;20493;-59
2021/12/08 03:38:21;;;;;;;5.07;3.27;;;;;;;;;;5071975;28;20454;-58
2021/12/08 03:40:48;;;;;;;4.90;3.40;;;;;;;;;;5070597;28;20426;-59
2021/12/08 03:43:14;;;;;;;4.10;3.27;;;;;;;;;;5071980;28;20452;-61
2021/12/08 03:45:46;;;;;;;5.53;3.50;;;;;;;;;;5071917;28;20582;-59
2021/12/08 03:48:14;;;;;;;7.00;3.63;;;;;;;;;;5072049;28;20440;-58
2021/12/08 03:50:41;;;;;;;5.23;4.73;;;;;;;;;;5071826;28;20484;-59
2021/12/08 03:53:08;;;;;;;4.93;3.20;;;;;;;;;;5071863;28;20509;-60
2021/12/08 03:55:34;;;;;;;4.63;3.67;;;;;;;;;;5071860;28;20425;-59
2021/12/08 03:58:00;;;;;;;5.10;3.33;;;;;;;;;;5072042;28;20426;-59
2021/12/08 04:00:29;;;;;;;5.03;3.40;;;;;;;;;;5071647;28;20500;-59
2021/12/08 04:02:56;;;;;;;9.30;3.40;;;;;;;;;;5071722;28;20221;-60
2021/12/08 04:05:32;;;;;;;5.80;3.43;;;;;;;;;;5071686;28;20545;-59
2021/12/08 04:08:04;;;;;;;4.70;3.20;;;;;;;;;;5071775;28;20448;-60
2021/12/08 04:10:30;;;;;;;6.30;3.30;;;;;;;;;;5071579;28;20984;-59
2021/12/08 04:12:57;;;;;;;5.13;3.33;;;;;;;;;;5071656;28;20438;-59
2021/12/08 04:15:24;;;;;;;5.67;3.50;;;;;;;;;;5071647;28;20493;-60
2021/12/08 04:17:52;;;;;;;4.50;3.40;;;;;;;;;;5071455;28;20440;-59
2021/12/08 04:20:21;;;;;;;5.23;3.17;;;;;;;;;;5071618;28;21167;-59
2021/12/08 04:22:49;;;;;;;3.77;3.10;;;;;;;;;;5071585;28;20516;-59
2021/12/08 04:25:16;;;;;;;5.13;3.30;;;;;;;;;;5071649;28;20493;-58
2021/12/08 04:27:43;;;;;;;3.97;3.00;;;;;;;;;;5071162;28;20426;-58
2021/12/08 04:30:12;;;;;;;4.70;3.10;;;;;;;;;;5071519;28;20527;-59
2021/12/08 04:32:38;;;;;;;4.40;3.13;;;;;;;;;;5071208;28;20452;-58
2021/12/08 04:35:09;;;;;;;7.83;3.37;;;;;;;;;;5071475;28;20449;-58
2021/12/08 04:37:38;;;;;;;7.73;3.20;;;;;;;;;;5071366;28;20426;-57
2021/12/08 04:40:23;;;;;;;4.00;3.13;;;;;;;;;;5071122;28;20932;-58
2021/12/08 04:43:11;;;;;;;7.40;3.40;;;;;;;;;;5071331;28;20449;-58
2021/12/08 04:45:58;;;;;;;5.30;3.40;;;;;;;;;;5071686;28;20868;-58
2021/12/08 04:48:55;;;;;;;6.60;3.40;;;;;;;;;;5075071;28;20430;-59
2021/12/08 04:51:37;;;;;;;5.90;3.50;;;;;;;;;;5073525;28;20880;-59
2021/12/08 05:02:32;;;;;;;5.03;3.07;;;;;;;;;;5074841;28;20947;-59
2021/12/08 05:05:19;;;;;;;5.03;2.93;;;;;;;;;;5074647;28;20449;-59
2021/12/08 05:07:57;;;;;;;4.23;3.00;;;;;;;;;;5072936;28;20529;-59
2021/12/08 05:10:28;;;;;;;4.60;3.33;;;;;;;;;;5074370;28;20547;-59
2021/12/08 05:12:55;;;;;;;4.87;3.27;;;;;;;;;;5074599;28;20449;-59
2021/12/08 05:15:23;;;;;;;4.27;3.20;;;;;;;;;;5074499;28;20446;-58
2021/12/08 05:17:51;;;;;;;3.60;3.20;;;;;;;;;;5074387;28;20503;-59
2021/12/08 05:20:19;;;;;;;4.13;3.20;;;;;;;;;;5074457;28;20532;-59
2021/12/08 05:22:46;;;;;;;5.17;3.23;;;;;;;;;;5074429;28;20786;-58
2021/12/08 05:25:14;;;;;;;4.10;2.93;;;;;;;;;;5074264;28;20462;-58
2021/12/08 05:27:44;;;;;;;3.47;2.97;;;;;;;;;;5074189;28;20438;-58
2021/12/08 05:30:13;;;;;;;3.47;2.70;;;;;;;;;;5074137;28;20465;-59
2021/12/08 05:32:39;;;;;;;4.20;2.63;;;;;;;;;;5074156;28;20453;-59
2021/12/08 05:35:07;;;;;;;4.77;3.17;;;;;;;;;;5074291;28;20442;-58
2021/12/08 05:37:33;;;;;;;3.10;2.80;;;;;;;;;;5074260;28;20437;-58
2021/12/08 05:39:59;;;;;;;4.43;2.73;;;;;;;;;;5073941;28;20483;-58
2021/12/08 05:42:26;;;;;;;4.17;2.40;;;;;;;;;;5074046;28;20454;-59
2021/12/08 05:44:54;;;;;;;4.83;3.00;;;;;;;;;;5073822;28;20477;-58
2021/12/08 05:47:21;;;;;;;4.90;2.67;;;;;;;;;;5073892;28;20470;-58
2021/12/08 05:49:48;;;;;;;3.03;2.60;;;;;;;;;;5073487;28;20481;-58
2021/12/08 05:52:15;;;;;;;5.63;3.13;;;;;;;;;;5073965;28;20934;-59
2021/12/08 05:54:43;;;;;;;2.83;2.57;;;;;;;;;;5073639;28;20483;-58
2021/12/08 05:57:10;;;;;;;4.17;3.13;;;;;;;;;;5072918;28;20465;-59
2021/12/08 05:59:37;;;;;;;5.10;2.77;;;;;;;;;;5073147;28;20525;-58
2021/12/08 06:02:06;;;;;;;3.33;3.00;;;;;;;;;;5073491;28;20930;-58
2021/12/08 06:04:33;;;;;;;4.23;2.60;;;;;;;;;;5073470;28;20536;-58
2021/12/08 06:06:59;;;;;;;3.50;3.00;;;;;;;;;;5073486;28;20514;-58
2021/12/08 06:09:26;;;;;;;3.03;2.50;;;;;;;;;;5073368;28;20476;-58
2021/12/08 06:11:53;;;;;;;5.00;2.73;;;;;;;;;;5073208;28;20434;-59
2021/12/08 06:14:21;;;;;;;3.53;3.10;;;;;;;;;;5073295;28;20832;-58
2021/12/08 06:16:48;;;;;;;4.90;2.80;;;;;;;;;;5072995;28;20448;-58
2021/12/08 06:19:16;;;;;;;3.50;2.77;;;;;;;;;;5073109;28;20525;-58
2021/12/08 06:21:43;;;;;;;5.10;3.00;;;;;;;;;;5072767;28;20498;-58
2021/12/08 06:24:11;;;;;;;2.67;2.40;;;;;;;;;;5072882;28;20866;-58
2021/12/08 06:26:37;;;;;;;4.47;2.90;;;;;;;;;;5073017;28;20445;-59
2021/12/08 06:29:04;;;;;;;5.83;2.83;;;;;;;;;;5071408;28;20444;-58
2021/12/08 06:31:30;;;;;;;3.53;2.77;;;;;;;;;;5072709;28;20701;-59
2021/12/08 06:33:56;;;;;;;3.60;2.63;;;;;;;;;;5072989;28;20485;-59
2021/12/08 06:36:25;;;;;;;2.63;2.33;;;;;;;;;;5072768;28;20438;-58
2021/12/08 06:38:52;;;;;;;4.10;2.33;;;;;;;;;;5072448;28;20442;-58
2021/12/08 06:41:20;;;;;;;5.20;2.43;;;;;;;;;;5072788;28;21038;-58
2021/12/08 06:43:48;;;;;;;3.23;2.70;;;;;;;;;;5072796;28;21053;-58
2021/12/08 06:46:15;;;;;;;4.00;2.63;;;;;;;;;;5072601;28;20567;-58
2021/12/08 06:48:42;;;;;;;3.20;2.87;;;;;;;;;;5072443;28;20426;-57
2021/12/08 06:51:10;;;;;;;3.40;2.70;;;;;;;;;;5072469;28;20486;-58
2021/12/08 06:53:38;;;;;;;3.20;2.50;;;;;;;;;;5072449;28;20434;-57
2021/12/08 06:56:06;;;;;;;3.97;2.80;;;;;;;;;;5072634;28;20476;-57
2021/12/08 06:58:33;;;;;;;3.87;2.30;;;;;;;;;;5072582;28;20787;-58
2021/12/08 07:03:37;;;;;;;3.20;2.40;;;;;;;;;;5072340;28;20429;-58
2021/12/08 07:06:09;;;;;;;3.17;2.60;;;;;;;;;;5072500;28;20511;-58
2021/12/08 07:08:37;;;;;;;5.80;2.80;;;;;;;;;;5072016;28;20791;-58
2021/12/08 07:11:05;;;;;;;4.90;2.83;;;;;;;;;;5072353;28;20834;-57
2021/12/08 07:13:32;;;;;;;3.23;2.80;;;;;;;;;;5072290;28;20438;-57
2021/12/08 07:16:00;;;;;;;3.87;2.97;;;;;;;;;;5072203;28;20782;-58
2021/12/08 07:18:27;;;;;;;3.60;2.60;;;;;;;;;;5071699;28;20446;-58
2021/12/08 07:20:56;;;;;;;4.73;2.70;;;;;;;;;;5071813;28;20430;-57
2021/12/08 07:23:24;;;;;;;4.67;3.30;;;;;;;;;;5072078;28;20426;-59
2021/12/08 07:25:51;;;;;;;3.20;2.83;;;;;;;;;;5072004;28;20468;-58
2021/12/08 07:28:19;;;;;;;4.23;2.90;;;;;;;;;;5072050;28;20476;-59
2021/12/08 07:30:47;;;;;;;4.53;3.07;;;;;;;;;;5071752;28;20516;-57
2021/12/08 07:33:37;;;;;;;2.97;2.73;;;;;;;;;;5072092;28;20442;-58
2021/12/08 07:36:05;;;;;;;2.70;2.43;;;;;;;;;;5071532;28;20432;-58
2021/12/08 07:38:31;;;;;;;3.07;2.73;;;;;;;;;;5071869;28;20466;-59
2021/12/08 07:41:02;;;;;;;2.90;2.60;;;;;;;;;;5071704;28;20806;-57
2021/12/08 07:43:29;;;;;;;3.33;2.67;;;;;;;;;;5071843;28;20438;-60
2021/12/08 07:46:02;;;;;;;2.90;2.70;;;;;;;;;;5071560;28;20438;-58
2021/12/08 07:48:34;;;;;;;4.43;2.70;;;;;;;;;;5071753;28;20442;-59
2021/12/08 07:51:04;;;;;;;4.57;2.90;;;;;;;;;;5071740;28;20485;-58
2021/12/08 07:53:31;;;;;;;3.47;2.73;;;;;;;;;;5071997;28;20488;-59
2021/12/08 07:56:02;;;;;;;2.80;2.40;;;;;;;;;;5071670;28;20541;-58
2021/12/08 07:58:31;;;;;;;3.10;2.80;;;;;;;;;;5071761;28;20936;-59
2021/12/08 08:00:59;;;;;;;2.93;2.70;;;;;;;;;;5071367;28;20565;-60
2021/12/08 08:03:26;;;;;;;5.80;3.17;;;;;;;;;;5071603;28;20437;-58
2021/12/08 08:05:53;;;;;;;3.23;2.90;;;;;;;;;;5071518;28;20458;-59
2021/12/08 08:08:21;;;;;;;2.70;2.50;;;;;;;;;;5071482;28;20442;-58
2021/12/08 08:10:48;;;;;;;2.90;2.60;;;;;;;;;;5071452;28;21054;-59
2021/12/08 08:13:16;;;;;;;3.00;2.70;;;;;;;;;;5071581;28;20436;-58
2021/12/08 08:15:46;;;;;;;3.00;2.53;;;;;;;;;;5071263;28;20605;-58
2021/12/08 08:18:14;;;;;;;3.83;2.97;;;;;;;;;;5071340;28;20461;-59
2021/12/08 08:20:42;;;;;;;6.00;2.67;;;;;;;;;;5071945;28;20865;-59
2021/12/08 08:23:09;;;;;;;2.83;2.53;;;;;;;;;;5075388;28;20460;-58
2021/12/08 08:25:36;;;;;;;3.17;2.83;;;;;;;;;;5075320;28;20434;-58
2021/12/08 08:28:03;;;;;;;3.03;2.70;;;;;;;;;;5075184;28;20438;-58
2021/12/08 08:30:35;;;;;;;3.73;2.93;;;;;;;;;;5075215;28;20480;-58
2021/12/08 08:33:03;;;;;;;2.97;2.63;;;;;;;;;;5075121;28;20521;-58
2021/12/08 08:35:31;;;;;;;3.10;2.80;;;;;;;;;;5075139;28;20450;-59
2021/12/08 08:37:57;;;;;;;4.03;2.87;;;;;;;;;;5074861;28;20453;-58
2021/12/08 08:40:25;;;;;;;4.20;3.10;;;;;;;;;;5075020;28;20430;-58
2021/12/08 08:42:52;;;;;;;3.30;2.90;;;;;;;;;;5074830;28;20923;-58
2021/12/08 08:45:20;;;;;;;3.80;3.13;;;;;;;;;;5074964;28;20441;-57
2021/12/08 08:47:48;;;;;;;5.33;2.93;;;;;;;;;;5074922;28;20441;-58
2021/12/08 08:50:22;;;;;;;4.90;3.07;;;;;;;;;;5074869;28;20555;-58
2021/12/08 08:52:51;;;;;;;6.90;3.20;;;;;;;;;;5074709;28;20446;-57
2021/12/08 08:55:19;;;;;;;3.33;3.03;;;;;;;;;;5074580;28;20441;-61
2021/12/08 08:57:47;;;;;;;4.83;3.23;;;;;;;;;;5074682;28;20453;-58
2021/12/08 09:00:16;;;;;;;3.37;2.60;;;;;;;;;;5074456;28;20939;-59
2021/12/08 09:02:43;;;;;;;5.67;3.40;;;;;;;;;;5074354;28;20528;-57
2021/12/08 09:05:11;;;;;;;3.70;3.23;;;;;;;;;;5074501;28;20688;-57
2021/12/08 09:07:42;;;;;;;4.43;2.90;;;;;;;;;;5074302;28;20928;-58
2021/12/08 09:10:13;;;;;;;4.70;3.30;;;;;;;;;;5074366;28;20481;-57
2021/12/08 09:12:42;;;;;;;4.43;2.80;;;;;;;;;;5074389;28;20456;-57
2021/12/08 09:15:10;;;;;;;3.33;3.00;;;;;;;;;;5074434;28;20429;-57
2021/12/08 09:17:38;;;;;;;4.33;3.10;;;;;;;;;;5071268;28;20700;-56
2021/12/08 09:20:07;;;;;;;3.37;3.07;;;;;;;;;;5073394;28;20441;-57
2021/12/08 09:22:38;;;;;;;4.43;3.20;;;;;;;;;;5074048;28;20453;-57
2021/12/08 09:25:08;;;;;;;4.73;3.23;;;;;;;;;;5074063;28;20445;-57
2021/12/08 09:27:36;;;;;;;5.50;3.30;;;;;;;;;;5073891;28;20860;-56
2021/12/08 09:30:05;;;;;;;6.80;3.53;;;;;;;;;;5073781;28;21119;-56
2021/12/08 09:32:36;;;;;;;3.50;3.10;;;;;;;;;;5073879;28;20478;-56
2021/12/08 09:35:05;;;;;;;5.43;3.30;;;;;;;;;;5073853;28;20441;-57
2021/12/08 09:37:33;;;;;;;4.50;3.30;;;;;;;;;;5073837;28;20426;-57
2021/12/08 09:40:00;;;;;;;3.90;3.50;;;;;;;;;;5073718;28;20458;-55
2021/12/08 09:42:30;;;;;;;4.40;3.73;;;;;;;;;;5073648;28;20429;-57
2021/12/08 09:44:58;;;;;;;3.90;3.50;;;;;;;;;;5073554;28;20448;-56
2021/12/08 09:47:29;;;;;;;5.17;3.60;;;;;;;;;;5073499;28;20725;-56
2021/12/08 09:49:55;;;;;;;3.60;3.30;;;;;;;;;;5073301;28;20438;-56
2021/12/08 09:52:21;;;;;;;4.77;3.40;;;;;;;;;;5073486;28;20441;-56
2021/12/08 09:54:47;;;;;;;6.27;3.40;;;;;;;;;;5073511;28;20429;-56
2021/12/08 09:57:15;;;;;;;7.30;3.40;;;;;;;;;;5073611;28;20426;-56
2021/12/08 09:59:47;;;;;;;4.07;3.37;;;;;;;;;;5073037;28;20444;-56
2021/12/08 10:02:14;;;;;;;6.30;3.50;;;;;;;;;;5073467;28;20529;-56
2021/12/08 10:04:40;;;;;;;8.53;3.70;;;;;;;;;;5073039;28;20466;-56
2021/12/08 10:07:06;;;;;;;5.30;3.10;;;;;;;;;;5073308;28;20434;-57
2021/12/08 10:09:32;;;;;;;4.70;3.37;;;;;;;;;;5073396;28;20541;-57
2021/12/08 10:11:58;;;;;;;8.20;3.70;;;;;;;;;;5073322;28;20485;-57
2021/12/08 10:14:25;;;;;;;6.27;3.80;;;;;;;;;;5073171;28;20487;-56
2021/12/08 10:16:54;;;;;;;4.57;3.60;;;;;;;;;;5072986;28;20893;-57
2021/12/08 10:19:22;;;;;;;6.00;3.30;;;;;;;;;;5072884;28;20438;-57
2021/12/08 10:21:48;;;;;;;4.20;3.50;;;;;;;;;;5072895;28;20451;-57
2021/12/08 10:24:16;;;;;;;4.53;3.50;;;;;;;;;;5073025;28;20437;-58
2021/12/08 10:26:42;;;;;;;4.00;3.60;;;;;;;;;;5072784;28;20426;-56
2021/12/08 10:29:08;;;;;;;4.90;3.50;;;;;;;;;;5072869;28;20441;-57
2021/12/08 10:31:39;;;;;;;3.83;3.40;;;;;;;;;;5072609;28;20485;-56
2021/12/08 10:34:20;;;;;;;6.07;3.50;;;;;;;;;;5072725;28;20442;-56
2021/12/08 10:36:49;;;;;;;4.93;3.40;;;;;;;;;;5072867;28;20434;-56
2021/12/08 10:39:20;;;;;;;4.50;3.20;;;;;;;;;;5072807;28;20954;-56
2021/12/08 10:41:48;;;;;;;5.03;3.50;;;;;;;;;;5072652;28;20470;-57
2021/12/08 10:44:15;;;;;;;4.77;3.23;;;;;;;;;;5072038;28;20434;-57
2021/12/08 10:46:41;;;;;;;7.63;3.60;;;;;;;;;;5072373;28;20446;-57
2021/12/08 10:49:24;;;;;;;5.03;3.37;;;;;;;;;;5072563;28;20434;-57
2021/12/08 10:54:36;;;;;;;5.17;3.67;;;;;;;;;;5073193;28;20433;-56
2021/12/08 10:57:03;;;;;;;9.13;3.73;;;;;;;;;;5073013;28;20438;-56
2021/12/08 10:59:50;;;;;;;5.87;3.20;;;;;;;;;;5072827;28;20525;-56
2021/12/08 11:02:31;;;;;;;7.33;3.43;;;;;;;;;;5073065;28;20437;-59
2021/12/08 11:04:58;;;;;;;4.33;3.40;;;;;;;;;;5072330;28;20584;-57
2021/12/08 11:07:24;;;;;;;5.00;3.47;;;;;;;;;;5072898;28;20445;-57
2021/12/08 11:09:50;;;;;;;6.47;3.43;;;;;;;;;;5072433;28;20525;-56
2021/12/08 11:12:16;;;;;;;3.50;3.00;;;;;;;;;;5072193;28;20191;-56
2021/12/08 11:14:44;;;;;;;6.27;3.20;;;;;;;;;;5072058;28;20223;-57
2021/12/08 11:17:24;;;;;;;5.47;3.10;;;;;;;;;;5071870;28;20438;-57
2021/12/08 11:19:50;;;;;;;3.10;2.77;;;;;;;;;;5071754;28;20469;-57
2021/12/08 11:22:18;;;;;;;5.57;3.23;;;;;;;;;;5071881;28;20829;-56
2021/12/08 11:24:56;;;;;;;3.20;2.90;;;;;;;;;;5071752;28;20536;-56
2021/12/08 11:27:28;;;;;;;4.37;3.10;;;;;;;;;;5071797;28;20440;-57
2021/12/08 11:29:54;;;;;;;5.63;2.90;;;;;;;;;;5071611;28;20430;-57
2021/12/08 11:32:23;;;;;;;5.20;3.03;;;;;;;;;;5071622;28;20469;-58
2021/12/08 11:34:51;;;;;;;5.83;3.23;;;;;;;;;;5071630;28;20374;-57
2021/12/08 11:37:19;;;;;;;4.70;3.07;;;;;;;;;;5071807;28;20260;-57
2021/12/08 11:39:48;;;;;;;4.13;3.03;;;;;;;;;;5071599;28;20449;-57
2021/12/08 11:42:16;;;;;;;5.73;2.87;;;;;;;;;;5071725;28;20514;-57
2021/12/08 11:44:43;;;;;;;6.73;3.20;;;;;;;;;;5071595;28;20480;-57
2021/12/08 11:47:10;;;;;;;6.00;3.40;;;;;;;;;;5071750;28;20453;-57
2021/12/08 11:49:41;;;;;;;4.37;2.70;;;;;;;;;;5071712;28;20528;-55
2021/12/08 11:52:13;;;;;;;3.40;3.10;;;;;;;;;;5071448;28;20496;-56
2021/12/08 11:54:42;;;;;;;3.47;3.03;;;;;;;;;;5071324;28;20525;-56
2021/12/08 11:57:13;;;;;;;3.83;3.30;;;;;;;;;;5074666;28;20521;-57
2021/12/08 11:59:47;;;;;;;4.10;3.03;;;;;;;;;;5075504;28;20445;-57
2021/12/08 12:02:14;;;;;;;4.57;3.13;;;;;;;;;;5076170;28;20429;-57
2021/12/08 12:04:40;;;;;;;4.70;3.00;;;;;;;;;;5075579;28;20457;-57
2021/12/08 12:07:08;;;;;;;3.97;3.00;;;;;;;;;;5075844;28;20468;-56
2021/12/08 12:09:34;;;;;;;5.50;2.80;;;;;;;;;;5075713;28;20201;-57
2021/12/08 12:12:01;;;;;;;5.00;2.77;;;;;;;;;;5075658;28;20543;-57
2021/12/08 12:14:28;;;;;;;5.77;3.17;;;;;;;;;;5075883;28;20434;-57
2021/12/08 12:16:54;;;;;;;4.20;2.93;;;;;;;;;;5075489;28;20227;-56
2021/12/08 12:19:22;;;;;;;3.53;2.90;;;;;;;;;;5075625;28;20920;-57
2021/12/08 12:21:56;;;;;;;3.90;2.90;;;;;;;;;;5075417;28;20441;-57
2021/12/08 12:24:30;;;;;;;3.63;2.90;;;;;;;;;;5075643;28;20433;-58
2021/12/08 12:27:08;;;;;;;4.13;2.70;;;;;;;;;;5075204;28;20925;-58
2021/12/08 12:29:41;;;;;;;3.80;2.70;;;;;;;;;;5075515;28;20452;-55
2021/12/08 12:32:12;;;;;;;4.17;2.43;;;;;;;;;;5075320;28;20481;-56
2021/12/08 12:34:39;;;;;;;3.07;2.63;;;;;;;;;;5075143;28;20490;-57
2021/12/08 12:37:06;;;;;;;3.70;2.77;;;;;;;;;;5075256;28;20444;-57
2021/12/08 12:39:32;;;;;;;4.20;2.53;;;;;;;;;;5072480;28;20511;-57
2021/12/08 12:42:00;;;;;;;2.83;2.63;;;;;;;;;;5054921;28;20445;-56
2021/12/08 12:44:29;;;;;;;3.90;2.70;;;;;;;;;;5055148;28;20480;-56
2021/12/08 12:47:20;;;;;;;6.27;3.00;;;;;;;;;;5054735;28;20439;-57
2021/12/08 12:49:47;;;;;;;4.27;2.57;;;;;;;;;;5054984;28;20431;-57
2021/12/08 12:52:15;;;;;;;4.27;2.80;;;;;;;;;;5054915;28;20544;-56
2021/12/08 12:54:41;;;;;;;4.30;2.60;;;;;;;;;;5054965;28;20435;-57
2021/12/08 12:57:08;;;;;;;3.63;2.60;;;;;;;;;;5054740;28;20810;-57
2021/12/08 12:59:43;;;;;;;4.13;2.60;;;;;;;;;;5054712;28;20859;-56
2021/12/08 13:02:11;;;;;;;5.07;2.50;;;;;;;;;;5054855;28;20594;-57
2021/12/08 13:04:50;;;;;;;3.20;2.43;;;;;;;;;;5054449;28;20565;-56
2021/12/08 13:07:16;;;;;;;6.23;2.97;;;;;;;;;;5054377;28;20451;-56
2021/12/08 13:09:46;;;;;;;3.87;2.70;;;;;;;;;;5054465;28;20844;-56
2021/12/08 13:12:14;;;;;;;6.93;2.40;;;;;;;;;;5054430;28;20509;-56
2021/12/08 13:14:41;;;;;;;6.47;2.57;;;;;;;;;;5054467;28;20431;-56
2021/12/08 13:17:16;;;;;;;3.00;2.00;;;;;;;;;;5054419;28;20477;-56
2021/12/08 13:19:44;;;;;;;5.97;2.80;;;;;;;;;;5054167;28;20445;-58
2021/12/08 13:22:30;;;;;;;4.57;2.50;;;;;;;;;;5054390;28;20454;-57
2021/12/08 13:25:00;;;;;;;4.23;2.40;;;;;;;;;;5054206;28;20477;-57
2021/12/08 13:27:29;;;;;;;5.03;2.37;;;;;;;;;;5054299;28;20521;-58
2021/12/08 13:30:07;;;;;;;3.30;2.20;;;;;;;;;;5054237;28;20431;-58
2021/12/08 13:32:45;;;;;;;3.67;2.10;;;;;;;;;;5053832;28;20443;-56
2021/12/08 13:35:11;;;;;;;4.43;2.70;;;;;;;;;;5054331;28;20446;-57
2021/12/08 13:37:37;;;;;;;5.07;2.87;;;;;;;;;;5054078;28;21170;-58
2021/12/08 13:40:05;;;;;;;3.83;2.60;;;;;;;;;;5054087;28;20546;-57
2021/12/08 13:42:34;;;;;;;4.33;2.70;;;;;;;;;;5054107;28;20202;-58
2021/12/08 13:45:01;;;;;;;5.17;2.80;;;;;;;;;;5054071;28;20469;-58
2021/12/08 13:47:32;;;;;;;4.43;2.87;;;;;;;;;;5054145;28;20575;-58
2021/12/08 13:50:06;;;;;;;3.70;2.77;;;;;;;;;;5051760;28;20809;-57
2021/12/08 13:52:33;;;;;;;4.17;2.70;;;;;;;;;;5053386;28;20439;-57
2021/12/08 13:55:16;;;;;;;4.17;2.43;;;;;;;;;;5053398;28;20957;-57
2021/12/08 13:57:43;;;;;;;4.27;2.67;;;;;;;;;;5053296;28;20434;-57
2021/12/08 14:00:11;;;;;;;3.43;2.43;;;;;;;;;;5053201;28;20568;-58
2021/12/08 14:02:43;;;;;;;3.97;3.10;;;;;;;;;;5053159;28;20500;-57
2021/12/08 14:05:13;;;;;;;4.07;3.03;;;;;;;;;;5053098;28;20459;-57
2021/12/08 14:07:40;;;;;;;5.77;3.50;;;;;;;;;;5053058;28;20443;-57
2021/12/08 14:10:07;;;;;;;12.13;3.60;;;;;;;;;;5053091;28;20446;-57
2021/12/08 14:12:43;;;;;;;6.63;3.00;;;;;;;;;;5053158;28;20442;-59
2021/12/08 14:15:10;;;;;;;4.13;2.80;;;;;;;;;;5052871;28;20441;-57
2021/12/08 14:17:36;;;;;;;3.30;2.80;;;;;;;;;;5052892;28;20906;-58
2021/12/08 14:20:02;;;;;;;5.37;2.70;;;;;;;;;;5052121;28;20447;-58
2021/12/08 14:22:38;;;;;;;3.50;2.83;;;;;;;;;;5053002;28;20207;-57
2021/12/08 14:25:05;;;;;;;6.23;3.10;;;;;;;;;;5052731;28;20530;-57
2021/12/08 14:27:31;;;;;;;3.87;2.57;;;;;;;;;;5052901;28;20434;-57
2021/12/08 14:29:58;;;;;;;3.37;2.97;;;;;;;;;;5035202;28;20439;-57
2021/12/08 14:32:24;;;;;;;4.37;3.20;;;;;;;;;;5052986;28;20475;-57
2021/12/08 14:34:50;;;;;;;5.77;2.90;;;;;;;;;;5052495;28;20500;-57
2021/12/08 14:37:16;;;;;;;2.83;2.50;;;;;;;;;;5053068;28;20443;-56
2021/12/08 14:39:45;;;;;;;5.00;3.40;;;;;;;;;;5052851;28;20430;-56
2021/12/08 14:42:13;;;;;;;3.63;2.70;;;;;;;;;;5052541;28;20204;-58
2021/12/08 14:44:45;;;;;;;4.27;3.07;;;;;;;;;;5052634;28;20481;-57
2021/12/08 14:47:12;;;;;;;3.57;3.10;;;;;;;;;;5052629;28;20812;-57
2021/12/08 14:49:41;;;;;;;6.23;3.20;;;;;;;;;;5052875;28;20437;-57
2021/12/08 14:52:08;;;;;;;7.30;3.33;;;;;;;;;;5052340;28;20478;-58
2021/12/08 14:54:35;;;;;;;4.27;3.53;;;;;;;;;;5052432;28;20966;-56
2021/12/08 14:57:14;;;;;;;3.83;3.13;;;;;;;;;;5052515;28;20443;-57
2021/12/08 14:59:50;;;;;;;5.77;3.30;;;;;;;;;;5052393;28;20439;-56
2021/12/08 15:02:21;;;;;;;3.23;2.93;;;;;;;;;;5052542;28;20964;-56
2021/12/08 15:04:47;;;;;;;5.37;3.27;;;;;;;;;;5052350;28;20458;-57
2021/12/08 15:07:18;;;;;;;4.70;3.00;;;;;;;;;;5052565;28;20814;-57
2021/12/08 15:09:55;;;;;;;5.20;2.70;;;;;;;;;;5052303;28;20447;-57
2021/12/08 15:12:22;;;;;;;5.03;3.03;;;;;;;;;;5052313;28;20482;-57
2021/12/08 15:14:49;;;;;;;5.73;2.90;;;;;;;;;;5052131;28;20451;-57
2021/12/08 15:17:15;;;;;;;3.37;2.60;;;;;;;;;;5052340;28;20466;-57
2021/12/08 15:19:48;;;;;;;4.57;3.33;;;;;;;;;;5052183;28;20522;-57
2021/12/08 15:22:16;;;;;;;4.87;3.30;;;;;;;;;;5052287;28;20929;-56
2021/12/08 15:24:42;;;;;;;5.13;2.83;;;;;;;;;;5052246;28;20431;-57
2021/12/08 15:27:12;;;;;;;3.37;2.80;;;;;;;;;;5052064;28;20539;-57
2021/12/08 15:29:40;;;;;;;3.97;2.83;;;;;;;;;;5051987;28;20535;-57
2021/12/08 15:32:11;;;;;;;6.20;3.67;;;;;;;;;;5051957;28;20574;-57